sensor_id;sensor_type;location;lat;lon;timestamp;temperature;humidity
41435;DHT22;27177;22.262;114.192;2022-08-30T00:00:49;27.30;99.90
41435;DHT22;27177;22.262;114.192;2022-08-30T00:03:43;27.30;99.90
41435;DHT22;27177;22.262;114.192;2022-08-30T00:06:15;27.30;99.90
41435;DHT22;27177;22.262;114.192;2022-08-30T00:08:43;27.40;99.90
41435;DHT22;27177;22.262;114.192;2022-08-30T00:11:13;27.40;99.90
41435;DHT22;27177;22.262;114.192;2022-08-30T00:13:42;27.50;99.90
41435;DHT22;27177;22.262;114.192;2022-08-30T00:16:10;27.50;99.90
41435;DHT22;27177;22.262;114.192;2022-08-30T00:18:38;27.60;99.90
41435;DHT22;27177;22.262;114.192;2022-08-30T00:21:06;27.70;99.90
41435;DHT22;27177;22.262;114.192;2022-08-30T00:23:33;27.80;99.90
41435;DHT22;27177;22.262;114.192;2022-08-30T00:26:00;27.90;99.90
41435;DHT22;27177;22.262;114.192;2022-08-30T00:28:28;28.00;99.90
41435;DHT22;27177;22.262;114.192;2022-08-30T00:30:55;28.10;99.90
41435;DHT22;27177;22.262;114.192;2022-08-30T00:33:22;28.10;99.90
41435;DHT22;27177;22.262;114.192;2022-08-30T00:35:49;28.20;99.90
41435;DHT22;27177;22.262;114.192;2022-08-30T00:38:16;28.20;99.90
41435;DHT22;27177;22.262;114.192;2022-08-30T00:40:44;28.30;99.90
41435;DHT22;27177;22.262;114.192;2022-08-30T00:43:15;28.30;99.90
41435;DHT22;27177;22.262;114.192;2022-08-30T00:45:44;28.30;99.90
41435;DHT22;27177;22.262;114.192;2022-08-30T00:48:11;28.40;99.90
41435;DHT22;27177;22.262;114.192;2022-08-30T00:50:43;28.50;99.90
41435;DHT22;27177;22.262;114.192;2022-08-30T00:53:16;28.50;99.90
41435;DHT22;27177;22.262;114.192;2022-08-30T00:55:45;28.60;99.90
41435;DHT22;27177;22.262;114.192;2022-08-30T00:58:18;28.60;99.90
41435;DHT22;27177;22.262;114.192;2022-08-30T01:00:49;28.60;99.90
41435;DHT22;27177;22.262;114.192;2022-08-30T01:03:17;28.60;99.90
41435;DHT22;27177;22.262;114.192;2022-08-30T01:05:44;28.70;99.90
41435;DHT22;27177;22.262;114.192;2022-08-30T01:08:11;28.80;99.90
41435;DHT22;27177;22.262;114.192;2022-08-30T01:10:41;28.80;99.90
41435;DHT22;27177;22.262;114.192;2022-08-30T01:13:10;28.90;99.90
41435;DHT22;27177;22.262;114.192;2022-08-30T01:15:40;28.80;99.90
41435;DHT22;27177;22.262;114.192;2022-08-30T01:18:07;28.90;99.90
41435;DHT22;27177;22.262;114.192;2022-08-30T01:23:15;29.00;99.90
41435;DHT22;27177;22.262;114.192;2022-08-30T01:25:45;29.00;99.90
41435;DHT22;27177;22.262;114.192;2022-08-30T01:28:26;29.00;99.90
41435;DHT22;27177;22.262;114.192;2022-08-30T01:30:53;29.10;99.90
41435;DHT22;27177;22.262;114.192;2022-08-30T01:33:21;29.00;99.90
41435;DHT22;27177;22.262;114.192;2022-08-30T01:35:58;29.00;99.90
41435;DHT22;27177;22.262;114.192;2022-08-30T01:38:32;29.10;99.90
41435;DHT22;27177;22.262;114.192;2022-08-30T01:41:10;29.00;99.90
41435;DHT22;27177;22.262;114.192;2022-08-30T01:43:39;29.00;99.90
41435;DHT22;27177;22.262;114.192;2022-08-30T01:46:07;28.90;99.90
41435;DHT22;27177;22.262;114.192;2022-08-30T01:48:37;29.00;99.90
41435;DHT22;27177;22.262;114.192;2022-08-30T01:51:05;28.90;99.90
41435;DHT22;27177;22.262;114.192;2022-08-30T01:53:32;28.90;99.90
41435;DHT22;27177;22.262;114.192;2022-08-30T01:55:59;28.90;99.90
41435;DHT22;27177;22.262;114.192;2022-08-30T01:58:26;28.90;99.90
41435;DHT22;27177;22.262;114.192;2022-08-30T02:00:54;29.00;99.90
41435;DHT22;27177;22.262;114.192;2022-08-30T02:03:21;29.00;99.90
41435;DHT22;27177;22.262;114.192;2022-08-30T02:05:48;29.10;99.90
41435;DHT22;27177;22.262;114.192;2022-08-30T02:08:15;29.30;99.90
41435;DHT22;27177;22.262;114.192;2022-08-30T02:10:42;29.30;99.90
41435;DHT22;27177;22.262;114.192;2022-08-30T02:13:09;29.30;99.90
41435;DHT22;27177;22.262;114.192;2022-08-30T02:15:36;29.40;99.90
41435;DHT22;27177;22.262;114.192;2022-08-30T02:18:03;29.50;99.90
41435;DHT22;27177;22.262;114.192;2022-08-30T02:20:30;29.50;99.90
41435;DHT22;27177;22.262;114.192;2022-08-30T02:22:57;29.60;99.90
41435;DHT22;27177;22.262;114.192;2022-08-30T02:25:24;29.70;99.90
41435;DHT22;27177;22.262;114.192;2022-08-30T02:27:51;29.70;99.90
41435;DHT22;27177;22.262;114.192;2022-08-30T02:30:18;29.70;99.90
41435;DHT22;27177;22.262;114.192;2022-08-30T02:32:45;29.70;99.90
41435;DHT22;27177;22.262;114.192;2022-08-30T02:35:15;29.70;99.90
41435;DHT22;27177;22.262;114.192;2022-08-30T02:37:42;29.70;99.90
41435;DHT22;27177;22.262;114.192;2022-08-30T02:40:09;29.70;99.90
41435;DHT22;27177;22.262;114.192;2022-08-30T02:42:36;29.70;99.90
41435;DHT22;27177;22.262;114.192;2022-08-30T02:45:04;29.70;99.90
41435;DHT22;27177;22.262;114.192;2022-08-30T02:47:31;29.70;99.90
41435;DHT22;27177;22.262;114.192;2022-08-30T02:49:58;29.80;99.90
41435;DHT22;27177;22.262;114.192;2022-08-30T02:52:25;30.00;99.90
41435;DHT22;27177;22.262;114.192;2022-08-30T02:54:52;30.10;99.90
41435;DHT22;27177;22.262;114.192;2022-08-30T02:57:20;30.00;99.90
41435;DHT22;27177;22.262;114.192;2022-08-30T02:59:48;30.10;99.90
41435;DHT22;27177;22.262;114.192;2022-08-30T03:02:15;30.10;99.90
41435;DHT22;27177;22.262;114.192;2022-08-30T03:04:42;30.20;99.90
41435;DHT22;27177;22.262;114.192;2022-08-30T03:07:11;30.20;99.90
41435;DHT22;27177;22.262;114.192;2022-08-30T03:09:38;30.20;99.90
41435;DHT22;27177;22.262;114.192;2022-08-30T03:12:05;30.20;99.90
41435;DHT22;27177;22.262;114.192;2022-08-30T03:14:34;30.20;99.90
41435;DHT22;27177;22.262;114.192;2022-08-30T03:17:07;30.30;99.90
41435;DHT22;27177;22.262;114.192;2022-08-30T03:19:35;30.40;99.90
41435;DHT22;27177;22.262;114.192;2022-08-30T03:22:03;30.30;99.90
41435;DHT22;27177;22.262;114.192;2022-08-30T03:24:31;30.30;99.90
41435;DHT22;27177;22.262;114.192;2022-08-30T03:26:58;30.20;99.90
41435;DHT22;27177;22.262;114.192;2022-08-30T03:29:25;30.10;99.90
41435;DHT22;27177;22.262;114.192;2022-08-30T03:31:52;30.10;99.90
41435;DHT22;27177;22.262;114.192;2022-08-30T03:34:19;30.00;99.90
41435;DHT22;27177;22.262;114.192;2022-08-30T03:36:47;30.00;99.90
41435;DHT22;27177;22.262;114.192;2022-08-30T03:39:14;30.00;99.90
41435;DHT22;27177;22.262;114.192;2022-08-30T03:41:41;29.90;99.90
41435;DHT22;27177;22.262;114.192;2022-08-30T03:44:09;29.80;99.90
41435;DHT22;27177;22.262;114.192;2022-08-30T03:46:36;29.60;99.90
41435;DHT22;27177;22.262;114.192;2022-08-30T03:49:04;29.50;99.90
41435;DHT22;27177;22.262;114.192;2022-08-30T03:51:31;29.50;99.90
41435;DHT22;27177;22.262;114.192;2022-08-30T03:53:59;29.40;99.90
41435;DHT22;27177;22.262;114.192;2022-08-30T03:56:27;29.20;99.90
41435;DHT22;27177;22.262;114.192;2022-08-30T03:58:54;29.10;99.90
41435;DHT22;27177;22.262;114.192;2022-08-30T04:01:21;29.00;99.90
41435;DHT22;27177;22.262;114.192;2022-08-30T04:03:49;28.90;99.90
41435;DHT22;27177;22.262;114.192;2022-08-30T04:06:20;28.80;99.90
41435;DHT22;27177;22.262;114.192;2022-08-30T04:08:47;28.60;99.90
41435;DHT22;27177;22.262;114.192;2022-08-30T04:11:20;28.50;99.90
41435;DHT22;27177;22.262;114.192;2022-08-30T04:13:50;28.50;99.90
41435;DHT22;27177;22.262;114.192;2022-08-30T04:16:19;28.50;99.90
41435;DHT22;27177;22.262;114.192;2022-08-30T04:18:46;28.50;99.90
41435;DHT22;27177;22.262;114.192;2022-08-30T04:21:13;28.50;99.90
41435;DHT22;27177;22.262;114.192;2022-08-30T04:23:41;28.50;99.90
41435;DHT22;27177;22.262;114.192;2022-08-30T04:26:10;28.50;99.90
41435;DHT22;27177;22.262;114.192;2022-08-30T04:28:37;28.50;99.90
41435;DHT22;27177;22.262;114.192;2022-08-30T04:31:10;28.60;99.90
41435;DHT22;27177;22.262;114.192;2022-08-30T04:33:39;28.60;99.90
41435;DHT22;27177;22.262;114.192;2022-08-30T04:36:07;28.70;99.90
41435;DHT22;27177;22.262;114.192;2022-08-30T04:38:36;28.80;99.90
41435;DHT22;27177;22.262;114.192;2022-08-30T04:41:16;28.90;99.90
41435;DHT22;27177;22.262;114.192;2022-08-30T04:43:44;28.90;99.90
41435;DHT22;27177;22.262;114.192;2022-08-30T04:46:16;28.90;99.90
41435;DHT22;27177;22.262;114.192;2022-08-30T04:48:45;29.00;99.90
41435;DHT22;27177;22.262;114.192;2022-08-30T04:51:15;29.00;99.90
41435;DHT22;27177;22.262;114.192;2022-08-30T04:53:53;29.00;99.90
41435;DHT22;27177;22.262;114.192;2022-08-30T04:56:23;29.20;99.90
41435;DHT22;27177;22.262;114.192;2022-08-30T04:58:53;29.40;99.90
41435;DHT22;27177;22.262;114.192;2022-08-30T05:01:26;29.80;99.90
41435;DHT22;27177;22.262;114.192;2022-08-30T05:03:55;30.00;99.90
41435;DHT22;27177;22.262;114.192;2022-08-30T05:06:24;30.20;99.90
41435;DHT22;27177;22.262;114.192;2022-08-30T05:08:53;30.30;99.90
41435;DHT22;27177;22.262;114.192;2022-08-30T05:11:21;30.50;99.90
41435;DHT22;27177;22.262;114.192;2022-08-30T05:13:48;30.70;99.90
41435;DHT22;27177;22.262;114.192;2022-08-30T05:16:15;30.70;99.90
41435;DHT22;27177;22.262;114.192;2022-08-30T05:18:47;30.90;99.90
41435;DHT22;27177;22.262;114.192;2022-08-30T05:21:24;30.90;99.90
41435;DHT22;27177;22.262;114.192;2022-08-30T05:23:57;31.10;99.90
41435;DHT22;27177;22.262;114.192;2022-08-30T05:26:30;31.30;99.90
41435;DHT22;27177;22.262;114.192;2022-08-30T05:28:58;31.40;99.90
41435;DHT22;27177;22.262;114.192;2022-08-30T05:31:31;31.40;99.90
41435;DHT22;27177;22.262;114.192;2022-08-30T05:33:59;31.50;99.90
41435;DHT22;27177;22.262;114.192;2022-08-30T05:36:28;31.60;99.90
41435;DHT22;27177;22.262;114.192;2022-08-30T05:38:56;31.80;99.90
41435;DHT22;27177;22.262;114.192;2022-08-30T05:41:24;31.80;99.90
41435;DHT22;27177;22.262;114.192;2022-08-30T05:43:56;31.90;99.90
41435;DHT22;27177;22.262;114.192;2022-08-30T05:46:23;32.00;99.90
41435;DHT22;27177;22.262;114.192;2022-08-30T05:48:51;32.20;99.90
41435;DHT22;27177;22.262;114.192;2022-08-30T05:51:20;32.20;99.90
41435;DHT22;27177;22.262;114.192;2022-08-30T05:53:49;32.10;99.90
41435;DHT22;27177;22.262;114.192;2022-08-30T05:56:19;32.00;99.90
41435;DHT22;27177;22.262;114.192;2022-08-30T05:58:46;32.00;99.90
41435;DHT22;27177;22.262;114.192;2022-08-30T06:01:32;32.00;99.90
41435;DHT22;27177;22.262;114.192;2022-08-30T06:04:01;31.50;99.90
41435;DHT22;27177;22.262;114.192;2022-08-30T06:06:30;31.20;99.90
41435;DHT22;27177;22.262;114.192;2022-08-30T06:08:57;30.90;99.90
41435;DHT22;27177;22.262;114.192;2022-08-30T06:11:25;30.60;99.90
41435;DHT22;27177;22.262;114.192;2022-08-30T06:13:54;30.30;99.90
41435;DHT22;27177;22.262;114.192;2022-08-30T06:16:23;30.20;99.90
41435;DHT22;27177;22.262;114.192;2022-08-30T06:18:50;30.00;99.90
41435;DHT22;27177;22.262;114.192;2022-08-30T06:21:25;29.80;99.90
41435;DHT22;27177;22.262;114.192;2022-08-30T06:23:54;29.70;99.90
41435;DHT22;27177;22.262;114.192;2022-08-30T06:26:22;29.60;99.90
41435;DHT22;27177;22.262;114.192;2022-08-30T06:28:50;29.60;99.90
41435;DHT22;27177;22.262;114.192;2022-08-30T06:31:19;29.60;99.90
41435;DHT22;27177;22.262;114.192;2022-08-30T06:33:46;29.60;99.90
41435;DHT22;27177;22.262;114.192;2022-08-30T06:36:16;29.60;99.90
41435;DHT22;27177;22.262;114.192;2022-08-30T06:38:45;29.60;99.90
41435;DHT22;27177;22.262;114.192;2022-08-30T06:41:18;29.70;99.90
41435;DHT22;27177;22.262;114.192;2022-08-30T06:43:46;30.00;99.90
41435;DHT22;27177;22.262;114.192;2022-08-30T06:46:16;30.30;99.90
41435;DHT22;27177;22.262;114.192;2022-08-30T06:48:44;30.60;99.90
41435;DHT22;27177;22.262;114.192;2022-08-30T06:51:11;30.70;99.90
41435;DHT22;27177;22.262;114.192;2022-08-30T06:53:38;30.80;99.90
41435;DHT22;27177;22.262;114.192;2022-08-30T06:56:07;30.90;99.90
41435;DHT22;27177;22.262;114.192;2022-08-30T06:58:37;30.90;99.90
41435;DHT22;27177;22.262;114.192;2022-08-30T07:01:11;30.90;99.90
41435;DHT22;27177;22.262;114.192;2022-08-30T07:03:39;30.90;99.90
41435;DHT22;27177;22.262;114.192;2022-08-30T07:06:06;30.90;99.90
41435;DHT22;27177;22.262;114.192;2022-08-30T07:08:34;30.90;99.90
41435;DHT22;27177;22.262;114.192;2022-08-30T07:11:01;31.00;99.90
41435;DHT22;27177;22.262;114.192;2022-08-30T07:13:29;31.10;99.90
41435;DHT22;27177;22.262;114.192;2022-08-30T07:15:56;31.20;99.90
41435;DHT22;27177;22.262;114.192;2022-08-30T07:18:23;31.30;99.90
41435;DHT22;27177;22.262;114.192;2022-08-30T07:21:12;31.20;99.90
41435;DHT22;27177;22.262;114.192;2022-08-30T07:23:41;31.10;99.90
41435;DHT22;27177;22.262;114.192;2022-08-30T07:26:11;31.00;99.90
41435;DHT22;27177;22.262;114.192;2022-08-30T07:28:40;31.00;99.90
41435;DHT22;27177;22.262;114.192;2022-08-30T07:31:08;31.10;99.90
41435;DHT22;27177;22.262;114.192;2022-08-30T07:33:36;30.90;99.90
41435;DHT22;27177;22.262;114.192;2022-08-30T07:36:04;30.80;99.90
41435;DHT22;27177;22.262;114.192;2022-08-30T07:38:31;30.70;99.90
41435;DHT22;27177;22.262;114.192;2022-08-30T07:40:59;30.50;99.90
41435;DHT22;27177;22.262;114.192;2022-08-30T07:43:27;30.30;99.90
41435;DHT22;27177;22.262;114.192;2022-08-30T07:45:55;30.10;99.90
41435;DHT22;27177;22.262;114.192;2022-08-30T07:48:25;30.00;99.90
41435;DHT22;27177;22.262;114.192;2022-08-30T07:50:52;30.00;99.90
41435;DHT22;27177;22.262;114.192;2022-08-30T07:53:19;30.00;99.90
41435;DHT22;27177;22.262;114.192;2022-08-30T07:55:46;30.00;99.90
41435;DHT22;27177;22.262;114.192;2022-08-30T07:58:13;30.10;99.90
41435;DHT22;27177;22.262;114.192;2022-08-30T08:00:40;30.00;99.90
41435;DHT22;27177;22.262;114.192;2022-08-30T08:03:08;29.90;99.90
41435;DHT22;27177;22.262;114.192;2022-08-30T08:05:37;29.90;99.90
41435;DHT22;27177;22.262;114.192;2022-08-30T08:08:05;29.80;99.90
41435;DHT22;27177;22.262;114.192;2022-08-30T08:10:32;29.60;99.90
41435;DHT22;27177;22.262;114.192;2022-08-30T08:12:59;29.50;99.90
41435;DHT22;27177;22.262;114.192;2022-08-30T08:15:27;29.40;99.90
41435;DHT22;27177;22.262;114.192;2022-08-30T08:17:55;29.20;99.90
41435;DHT22;27177;22.262;114.192;2022-08-30T08:20:22;28.90;99.90
41435;DHT22;27177;22.262;114.192;2022-08-30T08:22:51;28.60;99.90
41435;DHT22;27177;22.262;114.192;2022-08-30T08:25:18;28.30;99.90
41435;DHT22;27177;22.262;114.192;2022-08-30T08:27:50;28.10;99.90
41435;DHT22;27177;22.262;114.192;2022-08-30T08:30:19;27.90;99.90
41435;DHT22;27177;22.262;114.192;2022-08-30T08:32:47;27.80;99.90
41435;DHT22;27177;22.262;114.192;2022-08-30T08:35:15;27.70;99.90
41435;DHT22;27177;22.262;114.192;2022-08-30T08:37:44;27.70;99.90
41435;DHT22;27177;22.262;114.192;2022-08-30T08:40:16;27.80;99.90
41435;DHT22;27177;22.262;114.192;2022-08-30T08:43:03;27.80;99.90
41435;DHT22;27177;22.262;114.192;2022-08-30T08:50:52;27.90;99.90
41435;DHT22;27177;22.262;114.192;2022-08-30T08:53:38;27.90;99.90
41435;DHT22;27177;22.262;114.192;2022-08-30T08:56:10;27.90;99.90
41435;DHT22;27177;22.262;114.192;2022-08-30T08:58:46;27.90;99.90
41435;DHT22;27177;22.262;114.192;2022-08-30T09:17:03;30.20;99.90
41435;DHT22;27177;22.262;114.192;2022-08-30T09:19:31;30.60;99.90
41435;DHT22;27177;22.262;114.192;2022-08-30T09:22:13;30.60;99.90
41435;DHT22;27177;22.262;114.192;2022-08-30T09:24:51;30.50;99.90
41435;DHT22;27177;22.262;114.192;2022-08-30T09:27:21;30.20;99.90
41435;DHT22;27177;22.262;114.192;2022-08-30T09:32:33;29.90;99.90
41435;DHT22;27177;22.262;114.192;2022-08-30T09:40:21;29.40;99.90
41435;DHT22;27177;22.262;114.192;2022-08-30T09:48:00;29.00;99.90
41435;DHT22;27177;22.262;114.192;2022-08-30T09:50:29;28.90;99.90
41435;DHT22;27177;22.262;114.192;2022-08-30T10:16:51;28.10;99.90
41435;DHT22;27177;22.262;114.192;2022-08-30T10:28:34;27.90;99.90
41435;DHT22;27177;22.262;114.192;2022-08-30T10:36:15;27.70;99.90
41435;DHT22;27177;22.262;114.192;2022-08-30T10:38:48;27.70;99.90
41435;DHT22;27177;22.262;114.192;2022-08-30T10:49:04;27.60;99.90
41435;DHT22;27177;22.262;114.192;2022-08-30T10:56:39;27.50;99.90
41435;DHT22;27177;22.262;114.192;2022-08-30T10:59:08;27.50;99.90
41435;DHT22;27177;22.262;114.192;2022-08-30T11:14:53;27.30;99.90
41435;DHT22;27177;22.262;114.192;2022-08-30T11:17:29;27.30;99.90
41435;DHT22;27177;22.262;114.192;2022-08-30T11:20:00;27.30;99.90
41435;DHT22;27177;22.262;114.192;2022-08-30T11:22:34;27.30;99.90
41435;DHT22;27177;22.262;114.192;2022-08-30T11:27:53;27.30;99.90
41435;DHT22;27177;22.262;114.192;2022-08-30T11:35:49;27.30;99.90
41435;DHT22;27177;22.262;114.192;2022-08-30T12:00:35;27.30;99.90
41435;DHT22;27177;22.262;114.192;2022-08-30T12:03:05;27.30;99.90
41435;DHT22;27177;22.262;114.192;2022-08-30T12:16:21;27.40;99.90
41435;DHT22;27177;22.262;114.192;2022-08-30T12:18:52;27.50;99.90
41435;DHT22;27177;22.262;114.192;2022-08-30T12:21:29;27.50;99.90
41435;DHT22;27177;22.262;114.192;2022-08-30T12:29:22;27.40;99.90
41435;DHT22;27177;22.262;114.192;2022-08-30T12:32:02;27.40;99.90
41435;DHT22;27177;22.262;114.192;2022-08-30T12:34:47;27.30;99.90
41435;DHT22;27177;22.262;114.192;2022-08-30T12:37:38;27.30;99.90
41435;DHT22;27177;22.262;114.192;2022-08-30T12:40:14;27.20;99.90
41435;DHT22;27177;22.262;114.192;2022-08-30T12:42:50;27.20;99.90
41435;DHT22;27177;22.262;114.192;2022-08-30T12:45:19;27.20;99.90
41435;DHT22;27177;22.262;114.192;2022-08-30T12:47:51;27.10;99.90
41435;DHT22;27177;22.262;114.192;2022-08-30T12:50:25;27.10;99.90
41435;DHT22;27177;22.262;114.192;2022-08-30T12:53:03;27.10;99.90
41435;DHT22;27177;22.262;114.192;2022-08-30T12:55:35;27.10;99.90
41435;DHT22;27177;22.262;114.192;2022-08-30T12:58:06;27.00;99.90
41435;DHT22;27177;22.262;114.192;2022-08-30T13:00:39;27.00;99.90
41435;DHT22;27177;22.262;114.192;2022-08-30T13:03:35;27.00;99.90
41435;DHT22;27177;22.262;114.192;2022-08-30T13:06:03;27.00;99.90
41435;DHT22;27177;22.262;114.192;2022-08-30T13:08:36;26.90;99.90
41435;DHT22;27177;22.262;114.192;2022-08-30T13:13:55;27.10;99.90
41435;DHT22;27177;22.262;114.192;2022-08-30T13:16:34;27.10;99.90
41435;DHT22;27177;22.262;114.192;2022-08-30T13:19:33;27.00;99.90
41435;DHT22;27177;22.262;114.192;2022-08-30T13:22:02;27.00;99.90
41435;DHT22;27177;22.262;114.192;2022-08-30T13:24:32;26.90;99.90
41435;DHT22;27177;22.262;114.192;2022-08-30T13:27:03;26.90;99.90
41435;DHT22;27177;22.262;114.192;2022-08-30T13:29:33;26.80;99.90
41435;DHT22;27177;22.262;114.192;2022-08-30T13:32:00;26.80;99.90
41435;DHT22;27177;22.262;114.192;2022-08-30T13:34:26;26.80;99.90
41435;DHT22;27177;22.262;114.192;2022-08-30T13:36:58;26.80;99.90
41435;DHT22;27177;22.262;114.192;2022-08-30T13:39:25;26.80;99.90
41435;DHT22;27177;22.262;114.192;2022-08-30T13:41:53;26.80;99.90
41435;DHT22;27177;22.262;114.192;2022-08-30T13:44:20;26.80;99.90
41435;DHT22;27177;22.262;114.192;2022-08-30T13:46:53;26.70;99.90
41435;DHT22;27177;22.262;114.192;2022-08-30T13:49:27;26.70;99.90
41435;DHT22;27177;22.262;114.192;2022-08-30T13:51:54;26.70;99.90
41435;DHT22;27177;22.262;114.192;2022-08-30T13:54:22;26.80;99.90
41435;DHT22;27177;22.262;114.192;2022-08-30T13:56:50;26.70;99.90
41435;DHT22;27177;22.262;114.192;2022-08-30T13:59:18;26.70;99.90
41435;DHT22;27177;22.262;114.192;2022-08-30T14:01:45;26.70;99.90
41435;DHT22;27177;22.262;114.192;2022-08-30T14:04:14;26.70;99.90
41435;DHT22;27177;22.262;114.192;2022-08-30T14:06:41;26.70;99.90
41435;DHT22;27177;22.262;114.192;2022-08-30T14:09:08;26.70;99.90
41435;DHT22;27177;22.262;114.192;2022-08-30T14:11:37;26.60;99.90
41435;DHT22;27177;22.262;114.192;2022-08-30T14:14:04;26.60;99.90
41435;DHT22;27177;22.262;114.192;2022-08-30T14:16:32;26.60;99.90
41435;DHT22;27177;22.262;114.192;2022-08-30T14:18:59;26.60;99.90
41435;DHT22;27177;22.262;114.192;2022-08-30T14:21:26;26.60;99.90
41435;DHT22;27177;22.262;114.192;2022-08-30T14:23:54;26.60;99.90
41435;DHT22;27177;22.262;114.192;2022-08-30T14:26:36;26.60;99.90
41435;DHT22;27177;22.262;114.192;2022-08-30T14:29:07;26.60;99.90
41435;DHT22;27177;22.262;114.192;2022-08-30T14:31:35;26.50;99.90
41435;DHT22;27177;22.262;114.192;2022-08-30T14:34:02;26.60;99.90
41435;DHT22;27177;22.262;114.192;2022-08-30T14:36:30;26.60;99.90
41435;DHT22;27177;22.262;114.192;2022-08-30T14:38:56;26.60;99.90
41435;DHT22;27177;22.262;114.192;2022-08-30T14:41:23;26.50;99.90
41435;DHT22;27177;22.262;114.192;2022-08-30T14:43:51;26.50;99.90
41435;DHT22;27177;22.262;114.192;2022-08-30T14:46:17;26.60;99.90
41435;DHT22;27177;22.262;114.192;2022-08-30T14:48:44;26.50;99.90
41435;DHT22;27177;22.262;114.192;2022-08-30T14:51:14;26.50;99.90
41435;DHT22;27177;22.262;114.192;2022-08-30T14:53:42;26.50;99.90
41435;DHT22;27177;22.262;114.192;2022-08-30T14:56:12;26.50;99.90
41435;DHT22;27177;22.262;114.192;2022-08-30T14:58:39;26.50;99.90
41435;DHT22;27177;22.262;114.192;2022-08-30T15:01:08;26.50;99.90
41435;DHT22;27177;22.262;114.192;2022-08-30T15:03:36;26.50;99.90
41435;DHT22;27177;22.262;114.192;2022-08-30T15:06:04;26.50;99.90
41435;DHT22;27177;22.262;114.192;2022-08-30T15:08:32;26.50;99.90
41435;DHT22;27177;22.262;114.192;2022-08-30T15:11:00;26.50;99.90
41435;DHT22;27177;22.262;114.192;2022-08-30T15:13:27;26.50;99.90
41435;DHT22;27177;22.262;114.192;2022-08-30T15:15:54;26.50;99.90
41435;DHT22;27177;22.262;114.192;2022-08-30T15:18:20;26.50;99.90
41435;DHT22;27177;22.262;114.192;2022-08-30T15:20:49;26.50;99.90
41435;DHT22;27177;22.262;114.192;2022-08-30T15:23:16;26.40;99.90
41435;DHT22;27177;22.262;114.192;2022-08-30T15:25:43;26.40;99.90
41435;DHT22;27177;22.262;114.192;2022-08-30T15:28:09;26.40;99.90
41435;DHT22;27177;22.262;114.192;2022-08-30T15:30:36;26.40;99.90
41435;DHT22;27177;22.262;114.192;2022-08-30T15:33:03;26.40;99.90
41435;DHT22;27177;22.262;114.192;2022-08-30T15:35:29;26.40;99.90
41435;DHT22;27177;22.262;114.192;2022-08-30T15:37:56;26.40;99.90
41435;DHT22;27177;22.262;114.192;2022-08-30T15:40:23;26.40;99.90
41435;DHT22;27177;22.262;114.192;2022-08-30T15:42:50;26.40;99.90
41435;DHT22;27177;22.262;114.192;2022-08-30T15:45:16;26.40;99.90
41435;DHT22;27177;22.262;114.192;2022-08-30T15:47:43;26.40;99.90
41435;DHT22;27177;22.262;114.192;2022-08-30T15:50:10;26.40;99.90
41435;DHT22;27177;22.262;114.192;2022-08-30T15:52:37;26.40;99.90
41435;DHT22;27177;22.262;114.192;2022-08-30T15:55:04;26.40;99.90
41435;DHT22;27177;22.262;114.192;2022-08-30T15:57:31;26.50;99.90
41435;DHT22;27177;22.262;114.192;2022-08-30T15:59:58;26.40;99.90
41435;DHT22;27177;22.262;114.192;2022-08-30T16:02:25;26.40;99.90
41435;DHT22;27177;22.262;114.192;2022-08-30T16:04:51;26.40;99.90
41435;DHT22;27177;22.262;114.192;2022-08-30T16:07:18;26.50;99.90
41435;DHT22;27177;22.262;114.192;2022-08-30T16:09:45;26.50;99.90
41435;DHT22;27177;22.262;114.192;2022-08-30T16:12:13;26.40;99.90
41435;DHT22;27177;22.262;114.192;2022-08-30T16:14:41;26.50;99.90
41435;DHT22;27177;22.262;114.192;2022-08-30T16:17:07;26.50;99.90
41435;DHT22;27177;22.262;114.192;2022-08-30T16:19:34;26.50;99.90
41435;DHT22;27177;22.262;114.192;2022-08-30T16:22:02;26.40;99.90
41435;DHT22;27177;22.262;114.192;2022-08-30T16:24:29;26.40;99.90
41435;DHT22;27177;22.262;114.192;2022-08-30T16:26:56;26.50;99.90
41435;DHT22;27177;22.262;114.192;2022-08-30T16:29:23;26.40;99.90
41435;DHT22;27177;22.262;114.192;2022-08-30T16:31:50;26.40;99.90
41435;DHT22;27177;22.262;114.192;2022-08-30T16:34:18;26.40;99.90
41435;DHT22;27177;22.262;114.192;2022-08-30T16:36:45;26.40;99.90
41435;DHT22;27177;22.262;114.192;2022-08-30T16:39:13;26.40;99.90
41435;DHT22;27177;22.262;114.192;2022-08-30T16:41:41;26.30;99.90
41435;DHT22;27177;22.262;114.192;2022-08-30T16:44:07;26.30;99.90
41435;DHT22;27177;22.262;114.192;2022-08-30T16:46:35;26.40;99.90
41435;DHT22;27177;22.262;114.192;2022-08-30T16:49:02;26.30;99.90
41435;DHT22;27177;22.262;114.192;2022-08-30T16:51:31;26.30;99.90
41435;DHT22;27177;22.262;114.192;2022-08-30T16:54:02;26.30;99.90
41435;DHT22;27177;22.262;114.192;2022-08-30T16:56:31;26.30;99.90
41435;DHT22;27177;22.262;114.192;2022-08-30T16:58:59;26.30;99.90
41435;DHT22;27177;22.262;114.192;2022-08-30T17:01:26;26.20;99.90
41435;DHT22;27177;22.262;114.192;2022-08-30T17:03:53;26.30;99.90
41435;DHT22;27177;22.262;114.192;2022-08-30T17:06:20;26.30;99.90
41435;DHT22;27177;22.262;114.192;2022-08-30T17:08:46;26.30;99.90
41435;DHT22;27177;22.262;114.192;2022-08-30T17:11:13;26.30;99.90
41435;DHT22;27177;22.262;114.192;2022-08-30T17:13:40;26.30;99.90
41435;DHT22;27177;22.262;114.192;2022-08-30T17:16:07;26.30;99.90
41435;DHT22;27177;22.262;114.192;2022-08-30T17:18:36;26.20;99.90
41435;DHT22;27177;22.262;114.192;2022-08-30T17:21:04;26.20;99.90
41435;DHT22;27177;22.262;114.192;2022-08-30T17:23:31;26.20;99.90
41435;DHT22;27177;22.262;114.192;2022-08-30T17:25:57;26.20;99.90
41435;DHT22;27177;22.262;114.192;2022-08-30T17:28:25;26.20;99.90
41435;DHT22;27177;22.262;114.192;2022-08-30T17:30:52;26.20;99.90
41435;DHT22;27177;22.262;114.192;2022-08-30T17:33:19;26.20;99.90
41435;DHT22;27177;22.262;114.192;2022-08-30T17:35:45;26.20;99.90
41435;DHT22;27177;22.262;114.192;2022-08-30T17:38:12;26.20;99.90
41435;DHT22;27177;22.262;114.192;2022-08-30T17:40:39;26.20;99.90
41435;DHT22;27177;22.262;114.192;2022-08-30T17:43:06;26.20;99.90
41435;DHT22;27177;22.262;114.192;2022-08-30T17:45:33;26.20;99.90